Terminal Aerodrome Forecast
Issued by NWS Albany, NY

Home | Current Version | Previous Version | Text Only | Print | Product List | Glossary On
Versions: 1 2 3 4 5 6 7 8 9 10 11 12 13 14 15 16 17 18 19 20
000
FTUS41 KALY 271100
TAFPOU
TAF
KPOU 271128Z 2712/2812 18004KT P6SM SCT250
     FM271900 23005KT P6SM BKN060
     FM272200 28006KT P6SM SCT060 BKN100
     FM280200 VRB03KT P6SM SCT100 SCT250
     FM280800 00000KT 5SM BR SCT250=

USA.gov is the U.S. government's official web portal to all federal, state and local government web resources and services.